sensor_id;sensor_type;location;lat;lon;timestamp;P1;durP1;ratioP1;P2;durP2;ratioP2
59308;SDS011;48433;53.016;-2.260;2023-07-13T00:02:20;16.00;;;4.93;;
59308;SDS011;48433;53.016;-2.260;2023-07-13T00:04:48;15.15;;;5.43;;
59308;SDS011;48433;53.016;-2.260;2023-07-13T00:07:16;15.20;;;6.43;;
59308;SDS011;48433;53.016;-2.260;2023-07-13T00:09:47;17.58;;;5.47;;
59308;SDS011;48433;53.016;-2.260;2023-07-13T00:12:25;14.52;;;5.05;;
59308;SDS011;48433;53.016;-2.260;2023-07-13T00:14:56;15.43;;;6.35;;
59308;SDS011;48433;53.016;-2.260;2023-07-13T00:17:26;14.13;;;5.43;;
59308;SDS011;48433;53.016;-2.260;2023-07-13T00:19:55;15.52;;;5.53;;
59308;SDS011;48433;53.016;-2.260;2023-07-13T00:22:23;17.83;;;5.60;;
59308;SDS011;48433;53.016;-2.260;2023-07-13T00:24:53;11.05;;;5.32;;
59308;SDS011;48433;53.016;-2.260;2023-07-13T00:27:24;16.05;;;5.45;;
59308;SDS011;48433;53.016;-2.260;2023-07-13T00:29:53;11.98;;;5.20;;
59308;SDS011;48433;53.016;-2.260;2023-07-13T00:32:21;14.57;;;5.63;;
59308;SDS011;48433;53.016;-2.260;2023-07-13T00:34:49;17.17;;;5.90;;
59308;SDS011;48433;53.016;-2.260;2023-07-13T00:37:18;13.18;;;5.60;;
59308;SDS011;48433;53.016;-2.260;2023-07-13T00:39:46;12.68;;;5.22;;
59308;SDS011;48433;53.016;-2.260;2023-07-13T00:42:14;16.35;;;5.60;;
59308;SDS011;48433;53.016;-2.260;2023-07-13T00:44:59;14.85;;;5.72;;
59308;SDS011;48433;53.016;-2.260;2023-07-13T00:47:54;14.07;;;5.53;;
59308;SDS011;48433;53.016;-2.260;2023-07-13T00:50:24;14.05;;;5.72;;
59308;SDS011;48433;53.016;-2.260;2023-07-13T00:52:53;12.57;;;5.43;;
59308;SDS011;48433;53.016;-2.260;2023-07-13T00:55:24;18.17;;;5.38;;
59308;SDS011;48433;53.016;-2.260;2023-07-13T00:57:52;12.13;;;6.40;;
59308;SDS011;48433;53.016;-2.260;2023-07-13T01:00:20;12.50;;;5.15;;
59308;SDS011;48433;53.016;-2.260;2023-07-13T01:02:49;11.85;;;5.40;;
59308;SDS011;48433;53.016;-2.260;2023-07-13T01:05:19;14.55;;;4.88;;
59308;SDS011;48433;53.016;-2.260;2023-07-13T01:07:49;14.27;;;5.65;;
59308;SDS011;48433;53.016;-2.260;2023-07-13T01:10:22;13.40;;;4.75;;
59308;SDS011;48433;53.016;-2.260;2023-07-13T01:12:52;15.45;;;5.78;;
59308;SDS011;48433;53.016;-2.260;2023-07-13T01:18:07;14.35;;;4.93;;
59308;SDS011;48433;53.016;-2.260;2023-07-13T01:20:37;13.07;;;5.53;;
59308;SDS011;48433;53.016;-2.260;2023-07-13T01:23:07;14.68;;;5.07;;
59308;SDS011;48433;53.016;-2.260;2023-07-13T01:25:40;14.57;;;4.88;;
59308;SDS011;48433;53.016;-2.260;2023-07-13T01:28:08;10.85;;;4.40;;
59308;SDS011;48433;53.016;-2.260;2023-07-13T01:30:38;13.05;;;5.40;;
59308;SDS011;48433;53.016;-2.260;2023-07-13T01:33:07;13.60;;;4.97;;
59308;SDS011;48433;53.016;-2.260;2023-07-13T01:35:36;14.98;;;5.95;;
59308;SDS011;48433;53.016;-2.260;2023-07-13T01:38:04;13.23;;;4.80;;
59308;SDS011;48433;53.016;-2.260;2023-07-13T01:40:32;11.15;;;4.20;;
59308;SDS011;48433;53.016;-2.260;2023-07-13T01:43:01;11.98;;;5.00;;
59308;SDS011;48433;53.016;-2.260;2023-07-13T01:45:29;17.27;;;5.20;;
59308;SDS011;48433;53.016;-2.260;2023-07-13T01:47:57;11.15;;;5.28;;
59308;SDS011;48433;53.016;-2.260;2023-07-13T01:50:25;14.65;;;4.97;;
59308;SDS011;48433;53.016;-2.260;2023-07-13T01:52:53;12.98;;;4.60;;
59308;SDS011;48433;53.016;-2.260;2023-07-13T01:55:21;9.48;;;4.47;;
59308;SDS011;48433;53.016;-2.260;2023-07-13T01:57:49;12.27;;;4.72;;
59308;SDS011;48433;53.016;-2.260;2023-07-13T02:00:17;9.35;;;4.00;;
59308;SDS011;48433;53.016;-2.260;2023-07-13T02:02:48;9.93;;;3.90;;
59308;SDS011;48433;53.016;-2.260;2023-07-13T02:05:16;11.95;;;4.90;;
59308;SDS011;48433;53.016;-2.260;2023-07-13T02:07:45;9.32;;;4.38;;
59308;SDS011;48433;53.016;-2.260;2023-07-13T02:10:14;11.43;;;4.40;;
59308;SDS011;48433;53.016;-2.260;2023-07-13T02:12:42;12.27;;;4.65;;
59308;SDS011;48433;53.016;-2.260;2023-07-13T02:15:11;8.98;;;3.60;;
59308;SDS011;48433;53.016;-2.260;2023-07-13T02:17:39;9.95;;;4.97;;
59308;SDS011;48433;53.016;-2.260;2023-07-13T02:20:06;8.40;;;4.15;;
59308;SDS011;48433;53.016;-2.260;2023-07-13T02:22:35;10.32;;;4.20;;
59308;SDS011;48433;53.016;-2.260;2023-07-13T02:25:02;8.80;;;3.63;;
59308;SDS011;48433;53.016;-2.260;2023-07-13T02:27:30;10.68;;;4.60;;
59308;SDS011;48433;53.016;-2.260;2023-07-13T02:29:58;12.75;;;4.38;;
59308;SDS011;48433;53.016;-2.260;2023-07-13T02:32:25;9.02;;;4.30;;
59308;SDS011;48433;53.016;-2.260;2023-07-13T02:34:53;11.38;;;4.30;;
59308;SDS011;48433;53.016;-2.260;2023-07-13T02:37:21;11.25;;;5.00;;
59308;SDS011;48433;53.016;-2.260;2023-07-13T02:39:49;8.63;;;4.18;;
59308;SDS011;48433;53.016;-2.260;2023-07-13T02:42:16;8.10;;;3.95;;
59308;SDS011;48433;53.016;-2.260;2023-07-13T02:44:44;10.00;;;4.30;;
59308;SDS011;48433;53.016;-2.260;2023-07-13T02:47:12;9.93;;;5.15;;
59308;SDS011;48433;53.016;-2.260;2023-07-13T02:49:40;12.30;;;4.28;;
59308;SDS011;48433;53.016;-2.260;2023-07-13T02:52:07;13.05;;;4.57;;
59308;SDS011;48433;53.016;-2.260;2023-07-13T02:54:35;10.80;;;4.63;;
59308;SDS011;48433;53.016;-2.260;2023-07-13T02:57:03;11.82;;;4.43;;
59308;SDS011;48433;53.016;-2.260;2023-07-13T02:59:31;11.32;;;4.47;;
59308;SDS011;48433;53.016;-2.260;2023-07-13T03:02:00;8.50;;;3.92;;
59308;SDS011;48433;53.016;-2.260;2023-07-13T03:04:29;9.52;;;4.82;;
59308;SDS011;48433;53.016;-2.260;2023-07-13T03:06:57;8.85;;;4.75;;
59308;SDS011;48433;53.016;-2.260;2023-07-13T03:09:31;9.05;;;4.35;;
59308;SDS011;48433;53.016;-2.260;2023-07-13T03:12:01;12.00;;;4.78;;
59308;SDS011;48433;53.016;-2.260;2023-07-13T03:14:31;11.30;;;4.57;;
59308;SDS011;48433;53.016;-2.260;2023-07-13T03:17:01;11.30;;;4.65;;
59308;SDS011;48433;53.016;-2.260;2023-07-13T03:19:31;9.65;;;4.97;;
59308;SDS011;48433;53.016;-2.260;2023-07-13T03:21:59;12.00;;;4.70;;
59308;SDS011;48433;53.016;-2.260;2023-07-13T03:24:26;9.82;;;4.85;;
59308;SDS011;48433;53.016;-2.260;2023-07-13T03:26:56;10.00;;;5.03;;
59308;SDS011;48433;53.016;-2.260;2023-07-13T03:29:24;14.20;;;5.18;;
59308;SDS011;48433;53.016;-2.260;2023-07-13T03:31:52;10.32;;;4.47;;
59308;SDS011;48433;53.016;-2.260;2023-07-13T03:34:22;9.27;;;5.22;;
59308;SDS011;48433;53.016;-2.260;2023-07-13T03:36:49;11.07;;;5.18;;
59308;SDS011;48433;53.016;-2.260;2023-07-13T03:39:18;13.07;;;5.35;;
59308;SDS011;48433;53.016;-2.260;2023-07-13T03:41:48;10.43;;;5.65;;
59308;SDS011;48433;53.016;-2.260;2023-07-13T03:44:17;11.05;;;5.40;;
59308;SDS011;48433;53.016;-2.260;2023-07-13T03:46:48;11.88;;;5.40;;
59308;SDS011;48433;53.016;-2.260;2023-07-13T03:49:16;10.80;;;6.07;;
59308;SDS011;48433;53.016;-2.260;2023-07-13T03:51:44;11.88;;;5.18;;
59308;SDS011;48433;53.016;-2.260;2023-07-13T03:54:11;12.40;;;5.25;;
59308;SDS011;48433;53.016;-2.260;2023-07-13T03:56:39;14.55;;;6.40;;
59308;SDS011;48433;53.016;-2.260;2023-07-13T03:59:08;14.73;;;5.50;;
59308;SDS011;48433;53.016;-2.260;2023-07-13T04:01:37;11.07;;;5.95;;
59308;SDS011;48433;53.016;-2.260;2023-07-13T04:04:06;12.55;;;5.82;;
59308;SDS011;48433;53.016;-2.260;2023-07-13T04:06:34;14.95;;;7.25;;
59308;SDS011;48433;53.016;-2.260;2023-07-13T04:09:02;10.13;;;6.35;;
59308;SDS011;48433;53.016;-2.260;2023-07-13T04:11:34;11.60;;;5.68;;
59308;SDS011;48433;53.016;-2.260;2023-07-13T04:14:03;12.50;;;5.40;;
59308;SDS011;48433;53.016;-2.260;2023-07-13T04:16:31;9.75;;;5.47;;
59308;SDS011;48433;53.016;-2.260;2023-07-13T04:18:59;12.00;;;5.50;;
59308;SDS011;48433;53.016;-2.260;2023-07-13T04:21:28;11.82;;;5.25;;
59308;SDS011;48433;53.016;-2.260;2023-07-13T04:23:57;12.65;;;5.50;;
59308;SDS011;48433;53.016;-2.260;2023-07-13T04:26:25;9.25;;;4.72;;
59308;SDS011;48433;53.016;-2.260;2023-07-13T04:28:53;12.60;;;6.20;;
59308;SDS011;48433;53.016;-2.260;2023-07-13T04:31:21;12.02;;;5.45;;
59308;SDS011;48433;53.016;-2.260;2023-07-13T04:33:49;8.38;;;5.25;;
59308;SDS011;48433;53.016;-2.260;2023-07-13T04:36:17;10.30;;;5.10;;
59308;SDS011;48433;53.016;-2.260;2023-07-13T04:38:45;11.05;;;5.30;;
59308;SDS011;48433;53.016;-2.260;2023-07-13T04:41:13;11.32;;;5.88;;
59308;SDS011;48433;53.016;-2.260;2023-07-13T04:43:42;9.57;;;5.05;;
59308;SDS011;48433;53.016;-2.260;2023-07-13T04:46:11;10.07;;;5.38;;
59308;SDS011;48433;53.016;-2.260;2023-07-13T04:48:45;10.55;;;5.75;;
59308;SDS011;48433;53.016;-2.260;2023-07-13T04:51:13;13.65;;;5.78;;
59308;SDS011;48433;53.016;-2.260;2023-07-13T04:53:40;9.85;;;5.50;;
59308;SDS011;48433;53.016;-2.260;2023-07-13T04:56:08;10.52;;;5.80;;
59308;SDS011;48433;53.016;-2.260;2023-07-13T04:58:36;9.77;;;5.63;;
59308;SDS011;48433;53.016;-2.260;2023-07-13T05:01:04;11.57;;;6.05;;
59308;SDS011;48433;53.016;-2.260;2023-07-13T05:03:33;10.43;;;5.50;;
59308;SDS011;48433;53.016;-2.260;2023-07-13T05:06:05;12.13;;;6.28;;
59308;SDS011;48433;53.016;-2.260;2023-07-13T05:08:37;10.25;;;4.97;;
59308;SDS011;48433;53.016;-2.260;2023-07-13T05:11:04;13.27;;;6.00;;
59308;SDS011;48433;53.016;-2.260;2023-07-13T05:13:34;11.05;;;4.97;;
59308;SDS011;48433;53.016;-2.260;2023-07-13T05:16:03;12.48;;;5.43;;
59308;SDS011;48433;53.016;-2.260;2023-07-13T05:18:33;8.63;;;4.45;;
59308;SDS011;48433;53.016;-2.260;2023-07-13T05:21:02;12.18;;;5.43;;
59308;SDS011;48433;53.016;-2.260;2023-07-13T05:23:32;9.05;;;4.60;;
59308;SDS011;48433;53.016;-2.260;2023-07-13T05:26:01;9.88;;;4.82;;
59308;SDS011;48433;53.016;-2.260;2023-07-13T05:28:34;12.48;;;5.60;;
59308;SDS011;48433;53.016;-2.260;2023-07-13T05:31:02;10.00;;;4.57;;
59308;SDS011;48433;53.016;-2.260;2023-07-13T05:33:29;10.05;;;4.50;;
59308;SDS011;48433;53.016;-2.260;2023-07-13T05:35:57;10.43;;;4.32;;
59308;SDS011;48433;53.016;-2.260;2023-07-13T05:38:27;11.95;;;4.97;;
59308;SDS011;48433;53.016;-2.260;2023-07-13T05:40:56;9.38;;;4.47;;
59308;SDS011;48433;53.016;-2.260;2023-07-13T05:43:24;10.20;;;3.97;;
59308;SDS011;48433;53.016;-2.260;2023-07-13T05:45:53;8.65;;;4.45;;
59308;SDS011;48433;53.016;-2.260;2023-07-13T05:48:21;11.32;;;4.03;;
59308;SDS011;48433;53.016;-2.260;2023-07-13T05:50:49;9.88;;;3.63;;
59308;SDS011;48433;53.016;-2.260;2023-07-13T05:53:17;9.60;;;4.68;;
59308;SDS011;48433;53.016;-2.260;2023-07-13T05:55:45;9.95;;;3.70;;
59308;SDS011;48433;53.016;-2.260;2023-07-13T05:58:17;7.95;;;3.60;;
59308;SDS011;48433;53.016;-2.260;2023-07-13T06:00:46;8.68;;;3.88;;
59308;SDS011;48433;53.016;-2.260;2023-07-13T06:03:14;8.73;;;3.72;;
59308;SDS011;48433;53.016;-2.260;2023-07-13T06:05:42;6.70;;;3.22;;
59308;SDS011;48433;53.016;-2.260;2023-07-13T06:08:10;6.38;;;3.00;;
59308;SDS011;48433;53.016;-2.260;2023-07-13T06:10:38;7.57;;;2.83;;
59308;SDS011;48433;53.016;-2.260;2023-07-13T06:13:05;6.10;;;2.53;;
59308;SDS011;48433;53.016;-2.260;2023-07-13T06:15:33;6.40;;;2.28;;
59308;SDS011;48433;53.016;-2.260;2023-07-13T06:18:01;12.68;;;3.40;;
59308;SDS011;48433;53.016;-2.260;2023-07-13T06:20:28;7.57;;;2.00;;
59308;SDS011;48433;53.016;-2.260;2023-07-13T06:22:57;4.68;;;2.00;;
59308;SDS011;48433;53.016;-2.260;2023-07-13T06:25:26;6.38;;;2.00;;
59308;SDS011;48433;53.016;-2.260;2023-07-13T06:27:53;7.20;;;2.50;;
59308;SDS011;48433;53.016;-2.260;2023-07-13T06:30:21;6.07;;;1.90;;
59308;SDS011;48433;53.016;-2.260;2023-07-13T06:32:49;7.80;;;2.42;;
59308;SDS011;48433;53.016;-2.260;2023-07-13T06:35:16;7.05;;;2.33;;
59308;SDS011;48433;53.016;-2.260;2023-07-13T06:37:44;8.05;;;2.40;;
59308;SDS011;48433;53.016;-2.260;2023-07-13T06:40:12;9.60;;;2.65;;
59308;SDS011;48433;53.016;-2.260;2023-07-13T06:42:39;12.45;;;3.13;;
59308;SDS011;48433;53.016;-2.260;2023-07-13T06:45:07;5.22;;;2.55;;
59308;SDS011;48433;53.016;-2.260;2023-07-13T06:47:35;8.40;;;2.28;;
59308;SDS011;48433;53.016;-2.260;2023-07-13T06:50:03;6.07;;;2.30;;
59308;SDS011;48433;53.016;-2.260;2023-07-13T06:52:30;11.43;;;1.92;;
59308;SDS011;48433;53.016;-2.260;2023-07-13T06:54:58;7.38;;;2.00;;
59308;SDS011;48433;53.016;-2.260;2023-07-13T06:57:26;9.55;;;2.42;;
59308;SDS011;48433;53.016;-2.260;2023-07-13T06:59:54;9.82;;;2.35;;
59308;SDS011;48433;53.016;-2.260;2023-07-13T07:02:22;4.97;;;2.05;;
59308;SDS011;48433;53.016;-2.260;2023-07-13T07:04:50;10.52;;;1.98;;
59308;SDS011;48433;53.016;-2.260;2023-07-13T07:07:17;6.55;;;1.98;;
59308;SDS011;48433;53.016;-2.260;2023-07-13T07:09:45;5.35;;;1.70;;
59308;SDS011;48433;53.016;-2.260;2023-07-13T07:12:12;5.63;;;1.90;;
59308;SDS011;48433;53.016;-2.260;2023-07-13T07:14:41;7.47;;;2.08;;
59308;SDS011;48433;53.016;-2.260;2023-07-13T07:17:09;23.80;;;3.83;;
59308;SDS011;48433;53.016;-2.260;2023-07-13T07:19:37;12.75;;;2.90;;
59308;SDS011;48433;53.016;-2.260;2023-07-13T07:22:05;5.70;;;2.20;;
59308;SDS011;48433;53.016;-2.260;2023-07-13T07:24:33;8.32;;;2.15;;
59308;SDS011;48433;53.016;-2.260;2023-07-13T07:27:00;6.18;;;2.13;;
59308;SDS011;48433;53.016;-2.260;2023-07-13T07:29:31;9.00;;;2.75;;
59308;SDS011;48433;53.016;-2.260;2023-07-13T07:32:01;10.48;;;2.20;;
59308;SDS011;48433;53.016;-2.260;2023-07-13T07:34:44;9.38;;;2.50;;
59308;SDS011;48433;53.016;-2.260;2023-07-13T07:37:12;8.57;;;2.17;;
59308;SDS011;48433;53.016;-2.260;2023-07-13T07:39:43;8.68;;;2.83;;
59308;SDS011;48433;53.016;-2.260;2023-07-13T07:42:32;6.32;;;2.28;;
59308;SDS011;48433;53.016;-2.260;2023-07-13T07:44:59;7.40;;;2.70;;
59308;SDS011;48433;53.016;-2.260;2023-07-13T07:47:29;7.13;;;2.50;;
59308;SDS011;48433;53.016;-2.260;2023-07-13T07:49:56;8.20;;;2.30;;
59308;SDS011;48433;53.016;-2.260;2023-07-13T07:52:24;7.13;;;2.55;;
59308;SDS011;48433;53.016;-2.260;2023-07-13T07:54:52;20.30;;;4.07;;
59308;SDS011;48433;53.016;-2.260;2023-07-13T07:57:22;8.95;;;3.25;;
59308;SDS011;48433;53.016;-2.260;2023-07-13T07:59:53;9.13;;;2.95;;
59308;SDS011;48433;53.016;-2.260;2023-07-13T08:02:24;9.77;;;3.63;;
59308;SDS011;48433;53.016;-2.260;2023-07-13T08:04:55;5.55;;;2.45;;
59308;SDS011;48433;53.016;-2.260;2023-07-13T08:07:25;8.77;;;2.73;;
59308;SDS011;48433;53.016;-2.260;2023-07-13T08:09:53;8.68;;;3.33;;
59308;SDS011;48433;53.016;-2.260;2023-07-13T08:12:21;12.30;;;2.90;;
59308;SDS011;48433;53.016;-2.260;2023-07-13T08:14:52;9.53;;;2.80;;
59308;SDS011;48433;53.016;-2.260;2023-07-13T08:17:20;9.13;;;2.80;;
59308;SDS011;48433;53.016;-2.260;2023-07-13T08:19:48;8.50;;;2.70;;
59308;SDS011;48433;53.016;-2.260;2023-07-13T08:22:16;8.23;;;2.97;;
59308;SDS011;48433;53.016;-2.260;2023-07-13T08:24:43;12.90;;;2.75;;
59308;SDS011;48433;53.016;-2.260;2023-07-13T08:27:11;8.82;;;2.80;;
59308;SDS011;48433;53.016;-2.260;2023-07-13T08:29:39;5.72;;;2.10;;
59308;SDS011;48433;53.016;-2.260;2023-07-13T08:32:07;8.93;;;2.45;;
59308;SDS011;48433;53.016;-2.260;2023-07-13T08:34:36;7.97;;;2.72;;
59308;SDS011;48433;53.016;-2.260;2023-07-13T08:37:04;7.30;;;2.50;;
59308;SDS011;48433;53.016;-2.260;2023-07-13T08:39:32;8.57;;;2.85;;
59308;SDS011;48433;53.016;-2.260;2023-07-13T08:42:06;7.43;;;2.30;;
59308;SDS011;48433;53.016;-2.260;2023-07-13T08:44:42;6.15;;;1.80;;
59308;SDS011;48433;53.016;-2.260;2023-07-13T08:47:14;5.85;;;1.80;;
59308;SDS011;48433;53.016;-2.260;2023-07-13T08:49:43;4.97;;;1.70;;
59308;SDS011;48433;53.016;-2.260;2023-07-13T08:52:33;6.53;;;2.33;;
59308;SDS011;48433;53.016;-2.260;2023-07-13T08:55:25;5.13;;;1.90;;
59308;SDS011;48433;53.016;-2.260;2023-07-13T08:58:03;7.50;;;2.10;;
59308;SDS011;48433;53.016;-2.260;2023-07-13T09:03:12;4.95;;;1.88;;
59308;SDS011;48433;53.016;-2.260;2023-07-13T09:05:52;6.23;;;1.83;;
59308;SDS011;48433;53.016;-2.260;2023-07-13T09:14:19;7.15;;;2.42;;
59308;SDS011;48433;53.016;-2.260;2023-07-13T09:17:03;5.47;;;2.13;;
59308;SDS011;48433;53.016;-2.260;2023-07-13T09:19:37;6.05;;;2.15;;
59308;SDS011;48433;53.016;-2.260;2023-07-13T09:22:08;5.93;;;1.90;;
59308;SDS011;48433;53.016;-2.260;2023-07-13T09:24:53;8.18;;;2.35;;
59308;SDS011;48433;53.016;-2.260;2023-07-13T09:27:29;5.53;;;2.17;;
59308;SDS011;48433;53.016;-2.260;2023-07-13T09:32:43;8.38;;;2.00;;
59308;SDS011;48433;53.016;-2.260;2023-07-13T09:35:17;5.82;;;1.85;;
59308;SDS011;48433;53.016;-2.260;2023-07-13T09:37:48;5.82;;;1.55;;
59308;SDS011;48433;53.016;-2.260;2023-07-13T09:40:20;7.47;;;1.92;;
59308;SDS011;48433;53.016;-2.260;2023-07-13T09:42:57;6.93;;;2.05;;
59308;SDS011;48433;53.016;-2.260;2023-07-13T09:45:29;6.82;;;2.25;;
59308;SDS011;48433;53.016;-2.260;2023-07-13T09:48:03;6.63;;;1.83;;
59308;SDS011;48433;53.016;-2.260;2023-07-13T09:50:33;5.40;;;1.65;;
59308;SDS011;48433;53.016;-2.260;2023-07-13T09:53:01;4.40;;;1.90;;
59308;SDS011;48433;53.016;-2.260;2023-07-13T09:55:34;8.60;;;2.00;;
59308;SDS011;48433;53.016;-2.260;2023-07-13T09:58:05;6.75;;;1.83;;
59308;SDS011;48433;53.016;-2.260;2023-07-13T10:00:37;6.63;;;1.63;;
59308;SDS011;48433;53.016;-2.260;2023-07-13T10:03:16;6.25;;;1.70;;
59308;SDS011;48433;53.016;-2.260;2023-07-13T10:05:48;5.03;;;1.80;;
59308;SDS011;48433;53.016;-2.260;2023-07-13T10:10:59;7.72;;;2.08;;
59308;SDS011;48433;53.016;-2.260;2023-07-13T10:13:44;7.25;;;1.98;;
59308;SDS011;48433;53.016;-2.260;2023-07-13T10:16:25;6.78;;;2.40;;
59308;SDS011;48433;53.016;-2.260;2023-07-13T10:21:54;4.95;;;1.65;;
59308;SDS011;48433;53.016;-2.260;2023-07-13T10:24:25;6.10;;;1.98;;
59308;SDS011;48433;53.016;-2.260;2023-07-13T10:29:29;5.80;;;2.00;;
59308;SDS011;48433;53.016;-2.260;2023-07-13T10:32:04;7.55;;;2.35;;
59308;SDS011;48433;53.016;-2.260;2023-07-13T10:34:39;6.22;;;2.00;;
59308;SDS011;48433;53.016;-2.260;2023-07-13T10:40:12;6.93;;;2.15;;
59308;SDS011;48433;53.016;-2.260;2023-07-13T10:42:44;5.55;;;1.88;;
59308;SDS011;48433;53.016;-2.260;2023-07-13T10:45:18;13.18;;;2.95;;
59308;SDS011;48433;53.016;-2.260;2023-07-13T10:47:48;5.13;;;2.00;;
59308;SDS011;48433;53.016;-2.260;2023-07-13T10:50:21;4.07;;;1.77;;
59308;SDS011;48433;53.016;-2.260;2023-07-13T10:52:55;6.30;;;2.08;;
59308;SDS011;48433;53.016;-2.260;2023-07-13T10:55:34;4.90;;;1.58;;
59308;SDS011;48433;53.016;-2.260;2023-07-13T10:58:12;7.75;;;1.80;;
59308;SDS011;48433;53.016;-2.260;2023-07-13T11:03:34;6.55;;;1.70;;
59308;SDS011;48433;53.016;-2.260;2023-07-13T11:06:05;4.45;;;1.85;;
59308;SDS011;48433;53.016;-2.260;2023-07-13T11:18:51;6.88;;;1.70;;
59308;SDS011;48433;53.016;-2.260;2023-07-13T11:21:35;4.97;;;1.38;;
59308;SDS011;48433;53.016;-2.260;2023-07-13T11:24:48;13.43;;;4.07;;
59308;SDS011;48433;53.016;-2.260;2023-07-13T11:27:27;6.22;;;2.15;;
59308;SDS011;48433;53.016;-2.260;2023-07-13T11:33:28;6.80;;;2.50;;
59308;SDS011;48433;53.016;-2.260;2023-07-13T11:36:04;6.35;;;2.00;;
59308;SDS011;48433;53.016;-2.260;2023-07-13T11:41:06;8.05;;;2.10;;
59308;SDS011;48433;53.016;-2.260;2023-07-13T11:43:44;12.23;;;3.00;;
59308;SDS011;48433;53.016;-2.260;2023-07-13T11:46:16;7.55;;;2.67;;
59308;SDS011;48433;53.016;-2.260;2023-07-13T11:48:51;7.10;;;1.80;;
59308;SDS011;48433;53.016;-2.260;2023-07-13T11:51:21;8.88;;;3.05;;
59308;SDS011;48433;53.016;-2.260;2023-07-13T11:53:54;5.38;;;1.73;;
59308;SDS011;48433;53.016;-2.260;2023-07-13T11:58:53;5.63;;;2.00;;
59308;SDS011;48433;53.016;-2.260;2023-07-13T12:01:24;7.78;;;2.60;;
59308;SDS011;48433;53.016;-2.260;2023-07-13T12:04:03;9.20;;;1.73;;
59308;SDS011;48433;53.016;-2.260;2023-07-13T12:06:34;6.57;;;1.80;;
59308;SDS011;48433;53.016;-2.260;2023-07-13T12:09:10;5.40;;;1.73;;
59308;SDS011;48433;53.016;-2.260;2023-07-13T12:11:41;7.30;;;2.13;;
59308;SDS011;48433;53.016;-2.260;2023-07-13T12:14:16;6.82;;;2.22;;
59308;SDS011;48433;53.016;-2.260;2023-07-13T12:16:45;7.28;;;2.20;;
59308;SDS011;48433;53.016;-2.260;2023-07-13T12:19:17;7.38;;;2.30;;
59308;SDS011;48433;53.016;-2.260;2023-07-13T12:21:52;5.40;;;2.15;;
59308;SDS011;48433;53.016;-2.260;2023-07-13T12:24:23;8.95;;;2.92;;
59308;SDS011;48433;53.016;-2.260;2023-07-13T12:27:00;9.50;;;2.75;;
59308;SDS011;48433;53.016;-2.260;2023-07-13T12:29:29;6.47;;;1.80;;
59308;SDS011;48433;53.016;-2.260;2023-07-13T12:31:58;8.15;;;2.45;;
59308;SDS011;48433;53.016;-2.260;2023-07-13T12:34:26;7.18;;;2.20;;
59308;SDS011;48433;53.016;-2.260;2023-07-13T12:36:55;5.63;;;2.10;;
59308;SDS011;48433;53.016;-2.260;2023-07-13T12:39:51;5.22;;;1.70;;
59308;SDS011;48433;53.016;-2.260;2023-07-13T12:45:00;6.28;;;2.03;;
59308;SDS011;48433;53.016;-2.260;2023-07-13T12:47:42;7.35;;;2.22;;
59308;SDS011;48433;53.016;-2.260;2023-07-13T12:50:18;6.28;;;1.98;;
59308;SDS011;48433;53.016;-2.260;2023-07-13T12:52:51;6.80;;;2.33;;
59308;SDS011;48433;53.016;-2.260;2023-07-13T12:55:21;5.45;;;1.85;;
59308;SDS011;48433;53.016;-2.260;2023-07-13T12:57:52;6.63;;;2.40;;
59308;SDS011;48433;53.016;-2.260;2023-07-13T13:03:07;7.95;;;2.60;;
59308;SDS011;48433;53.016;-2.260;2023-07-13T13:05:57;7.97;;;2.25;;
59308;SDS011;48433;53.016;-2.260;2023-07-13T13:08:31;7.30;;;1.92;;
59308;SDS011;48433;53.016;-2.260;2023-07-13T13:11:02;8.45;;;2.17;;
59308;SDS011;48433;53.016;-2.260;2023-07-13T13:13:30;5.60;;;2.50;;
59308;SDS011;48433;53.016;-2.260;2023-07-13T13:16:01;8.90;;;2.58;;
59308;SDS011;48433;53.016;-2.260;2023-07-13T13:18:40;5.38;;;2.17;;
59308;SDS011;48433;53.016;-2.260;2023-07-13T13:21:09;8.32;;;2.53;;
59308;SDS011;48433;53.016;-2.260;2023-07-13T13:23:37;7.22;;;2.60;;
59308;SDS011;48433;53.016;-2.260;2023-07-13T13:26:08;7.65;;;2.47;;
59308;SDS011;48433;53.016;-2.260;2023-07-13T13:28:45;7.05;;;2.78;;
59308;SDS011;48433;53.016;-2.260;2023-07-13T13:31:14;6.95;;;2.40;;
59308;SDS011;48433;53.016;-2.260;2023-07-13T13:33:43;6.95;;;2.80;;
59308;SDS011;48433;53.016;-2.260;2023-07-13T13:36:17;6.97;;;2.60;;
59308;SDS011;48433;53.016;-2.260;2023-07-13T13:38:47;6.22;;;2.40;;
59308;SDS011;48433;53.016;-2.260;2023-07-13T13:41:16;5.40;;;2.05;;
59308;SDS011;48433;53.016;-2.260;2023-07-13T13:43:44;6.53;;;2.50;;
59308;SDS011;48433;53.016;-2.260;2023-07-13T13:46:19;4.88;;;2.00;;
59308;SDS011;48433;53.016;-2.260;2023-07-13T13:48:49;8.40;;;2.25;;
59308;SDS011;48433;53.016;-2.260;2023-07-13T13:51:19;5.40;;;1.83;;
59308;SDS011;48433;53.016;-2.260;2023-07-13T13:56:16;5.18;;;1.90;;
59308;SDS011;48433;53.016;-2.260;2023-07-13T13:58:45;8.07;;;2.00;;
59308;SDS011;48433;53.016;-2.260;2023-07-13T14:01:14;6.30;;;2.17;;
59308;SDS011;48433;53.016;-2.260;2023-07-13T14:03:45;5.85;;;2.05;;
59308;SDS011;48433;53.016;-2.260;2023-07-13T14:06:13;6.25;;;1.80;;
59308;SDS011;48433;53.016;-2.260;2023-07-13T14:08:42;14.65;;;2.92;;
59308;SDS011;48433;53.016;-2.260;2023-07-13T14:11:14;8.35;;;2.28;;
59308;SDS011;48433;53.016;-2.260;2023-07-13T14:13:45;7.75;;;2.40;;
59308;SDS011;48433;53.016;-2.260;2023-07-13T14:16:21;6.57;;;2.13;;
59308;SDS011;48433;53.016;-2.260;2023-07-13T14:18:50;7.32;;;2.00;;
59308;SDS011;48433;53.016;-2.260;2023-07-13T14:21:20;5.40;;;2.38;;
59308;SDS011;48433;53.016;-2.260;2023-07-13T14:23:48;7.15;;;1.92;;
59308;SDS011;48433;53.016;-2.260;2023-07-13T14:26:26;6.88;;;2.38;;
59308;SDS011;48433;53.016;-2.260;2023-07-13T14:28:55;5.53;;;2.08;;
59308;SDS011;48433;53.016;-2.260;2023-07-13T14:31:25;7.45;;;2.38;;
59308;SDS011;48433;53.016;-2.260;2023-07-13T14:33:57;7.22;;;2.80;;
59308;SDS011;48433;53.016;-2.260;2023-07-13T14:36:31;5.60;;;2.22;;
59308;SDS011;48433;53.016;-2.260;2023-07-13T14:39:05;9.90;;;2.67;;
59308;SDS011;48433;53.016;-2.260;2023-07-13T14:41:42;5.32;;;2.17;;
59308;SDS011;48433;53.016;-2.260;2023-07-13T14:46:42;7.40;;;2.10;;
59308;SDS011;48433;53.016;-2.260;2023-07-13T14:51:47;5.32;;;2.45;;
59308;SDS011;48433;53.016;-2.260;2023-07-13T14:54:15;8.77;;;2.67;;
59308;SDS011;48433;53.016;-2.260;2023-07-13T14:56:43;8.02;;;2.13;;
59308;SDS011;48433;53.016;-2.260;2023-07-13T14:59:10;5.03;;;2.03;;
59308;SDS011;48433;53.016;-2.260;2023-07-13T15:01:39;7.72;;;2.67;;
59308;SDS011;48433;53.016;-2.260;2023-07-13T15:04:08;6.07;;;2.30;;
59308;SDS011;48433;53.016;-2.260;2023-07-13T15:09:26;6.83;;;2.23;;
59308;SDS011;48433;53.016;-2.260;2023-07-13T15:11:56;5.60;;;1.80;;
59308;SDS011;48433;53.016;-2.260;2023-07-13T15:14:25;8.35;;;2.70;;
59308;SDS011;48433;53.016;-2.260;2023-07-13T15:16:54;7.82;;;2.83;;
59308;SDS011;48433;53.016;-2.260;2023-07-13T15:19:23;7.90;;;2.43;;
59308;SDS011;48433;53.016;-2.260;2023-07-13T15:21:52;6.28;;;2.03;;
59308;SDS011;48433;53.016;-2.260;2023-07-13T15:24:22;7.35;;;2.10;;
59308;SDS011;48433;53.016;-2.260;2023-07-13T15:26:49;5.45;;;2.20;;
59308;SDS011;48433;53.016;-2.260;2023-07-13T15:29:17;8.70;;;2.28;;
59308;SDS011;48433;53.016;-2.260;2023-07-13T15:31:45;5.72;;;1.95;;
59308;SDS011;48433;53.016;-2.260;2023-07-13T15:34:14;6.35;;;2.15;;
59308;SDS011;48433;53.016;-2.260;2023-07-13T15:36:44;5.97;;;1.88;;
59308;SDS011;48433;53.016;-2.260;2023-07-13T15:39:15;4.85;;;1.70;;
59308;SDS011;48433;53.016;-2.260;2023-07-13T15:41:44;5.95;;;1.90;;
59308;SDS011;48433;53.016;-2.260;2023-07-13T15:44:25;6.22;;;2.05;;
59308;SDS011;48433;53.016;-2.260;2023-07-13T15:46:56;7.00;;;2.03;;
59308;SDS011;48433;53.016;-2.260;2023-07-13T15:51:55;6.85;;;2.00;;
59308;SDS011;48433;53.016;-2.260;2023-07-13T15:54:23;4.95;;;2.22;;
59308;SDS011;48433;53.016;-2.260;2023-07-13T15:56:52;5.75;;;2.25;;